Kurume, Japan
Current Conditions -  °F | °C
As of 6:00 PM on Saturday 20 Dec 2014 (Local Time) from RJFS Reporting Station
Broken Clouds Broken Clouds  
Wind Chill: 43°   Ceiling: 5000
Heat Index: 48°   Visibility: 4mi
Dew Point: 34°   Wind: 13mph
Humidity: 57%   Direction: 290°WNW
Pressure: 30.06"   Gusts: NA
Location:  33.31°N, 130.51°E
Report Text: RJFS 200900Z 29011KT 7000 FEW030 BKN050 09/01 Q1018
Loading
Personal Weather Stations






























Interactive Weather Map New forecast layout! Learn more

10-Day Weather Forecast

Advertisements
Track Severe Weather on mobile